Time;durP1;ratioP1;P1;durP2;ratioP2;P2;SDS_P1;SDS_P2;PMS_P1;PMS_P2;Temp;Humidity;BMP_temperature;BMP_pressure;BME280_temperature;BME280_humidity;BME280_pressure;Samples;Min_cycle;Max_cycle;Signal;HPM_P1;HPM_P2
2023/10/07 00:02:13;;;;;;;0.10;0.10;;;;;;;;;;5133485;28;20279;-51
2023/10/07 00:04:39;;;;;;;0.10;0.10;;;;;;;;;;5133673;28;20474;-51
2023/10/07 00:07:10;;;;;;;0.10;0.10;;;;;;;;;;5133920;28;20050;-51
2023/10/07 00:09:36;;;;;;;0.10;0.10;;;;;;;;;;5133548;28;20074;-51
2023/10/07 00:12:02;;;;;;;0.10;0.10;;;;;;;;;;5133121;28;20061;-50
2023/10/07 00:14:30;;;;;;;0.10;0.10;;;;;;;;;;5132696;27;20138;-51
2023/10/07 00:16:57;;;;;;;0.10;0.10;;;;;;;;;;5133391;28;20407;-52
2023/10/07 00:19:23;;;;;;;0.10;0.10;;;;;;;;;;5133019;28;20050;-51
2023/10/07 00:21:59;;;;;;;0.10;0.10;;;;;;;;;;5133463;28;20166;-50
2023/10/07 00:24:26;;;;;;;0.10;0.10;;;;;;;;;;5133607;28;20476;-50
2023/10/07 00:26:52;;;;;;;;;;;;;;;;;;5134080;28;20051;-51
2023/10/07 00:29:21;;;;;;;0.30;0.30;;;;;;;;;;5132742;28;20098;-51
2023/10/07 00:31:50;;;;;;;0.10;0.10;;;;;;;;;;5132049;28;20544;-51
2023/10/07 00:34:18;;;;;;;0.10;0.10;;;;;;;;;;5132180;28;20138;-51
2023/10/07 00:36:47;;;;;;;0.10;0.10;;;;;;;;;;5132078;27;20162;-51
2023/10/07 00:39:20;;;;;;;0.10;0.10;;;;;;;;;;5117209;27;20104;-51
2023/10/07 00:41:47;;;;;;;0.10;0.10;;;;;;;;;;5115428;28;20539;-50
2023/10/07 00:44:47;;;;;;;0.10;0.10;;;;;;;;;;5126995;27;20125;-51
2023/10/07 00:47:12;;;;;;;0.20;0.20;;;;;;;;;;5116940;28;20138;-51
2023/10/07 00:49:54;;;;;;;0.10;0.10;;;;;;;;;;5132034;28;20074;-50
2023/10/07 00:52:32;;;;;;;0.20;0.20;;;;;;;;;;5132044;28;20088;-50
2023/10/07 00:57:47;;;;;;;0.10;0.10;;;;;;;;;;5189726;27;20141;-51
2023/10/07 01:02:52;;;;;;;0.20;0.20;;;;;;;;;;5169328;27;20474;-51
2023/10/07 01:05:25;;;;;;;0.10;0.10;;;;;;;;;;5169323;27;20046;-51
2023/10/07 01:07:53;;;;;;;0.10;0.10;;;;;;;;;;5168493;27;20042;-51
2023/10/07 01:10:26;;;;;;;0.10;0.10;;;;;;;;;;5168892;27;20046;-50
2023/10/07 01:12:55;;;;;;;0.10;0.10;;;;;;;;;;5168012;27;20106;-51
2023/10/07 01:15:23;;;;;;;0.10;0.10;;;;;;;;;;5168905;27;20494;-51
2023/10/07 01:17:56;;;;;;;0.10;0.10;;;;;;;;;;5167952;27;20563;-50
2023/10/07 01:20:22;;;;;;;0.20;0.20;;;;;;;;;;5168923;27;20110;-50
2023/10/07 01:23:04;;;;;;;0.20;0.20;;;;;;;;;;5168650;27;20055;-51
2023/10/07 01:25:30;;;;;;;0.10;0.10;;;;;;;;;;5168751;27;20050;-50
2023/10/07 01:27:56;;;;;;;0.10;0.10;;;;;;;;;;5168472;27;20478;-51
2023/10/07 01:30:28;;;;;;;0.20;0.20;;;;;;;;;;5168391;27;20042;-51
2023/10/07 01:33:02;;;;;;;0.10;0.10;;;;;;;;;;5167848;27;20165;-52
2023/10/07 01:35:32;;;;;;;0.10;0.10;;;;;;;;;;5167702;27;20050;-51
2023/10/07 01:38:18;;;;;;;0.10;0.10;;;;;;;;;;5167766;27;20050;-50
2023/10/07 01:40:55;;;;;;;0.10;0.10;;;;;;;;;;5168043;27;20046;-51
2023/10/07 01:43:21;;;;;;;0.20;0.20;;;;;;;;;;5149195;27;20074;-50
2023/10/07 01:45:48;;;;;;;0.10;0.10;;;;;;;;;;5146316;27;20514;-51
2023/10/07 01:48:17;;;;;;;0.10;0.10;;;;;;;;;;5146645;27;20058;-51
2023/10/07 01:50:44;;;;;;;0.10;0.10;;;;;;;;;;5147331;27;20049;-51
2023/10/07 01:53:11;;;;;;;0.10;0.10;;;;;;;;;;5146813;27;20053;-51
2023/10/07 01:55:52;;;;;;;0.20;0.20;;;;;;;;;;5147212;27;20066;-51
2023/10/07 01:58:19;;;;;;;0.10;0.10;;;;;;;;;;5146365;27;20043;-51
2023/10/07 02:00:51;;;;;;;0.20;0.20;;;;;;;;;;5147419;27;20046;-49
2023/10/07 02:03:21;;;;;;;0.28;0.28;;;;;;;;;;5147253;27;20043;-50
2023/10/07 02:05:48;;;;;;;0.10;0.10;;;;;;;;;;5146991;27;20043;-51
2023/10/07 02:08:18;;;;;;;0.10;0.10;;;;;;;;;;5137610;27;20470;-51
2023/10/07 02:10:45;;;;;;;0.15;0.15;;;;;;;;;;5133119;28;20051;-52
2023/10/07 02:13:19;;;;;;;0.10;0.10;;;;;;;;;;5132267;28;20510;-51
2023/10/07 02:15:45;;;;;;;0.10;0.10;;;;;;;;;;5132743;28;20043;-51
2023/10/07 02:18:18;;;;;;;0.20;0.20;;;;;;;;;;5131994;28;20078;-50
2023/10/07 02:20:49;;;;;;;0.10;0.10;;;;;;;;;;5133242;28;20054;-52
2023/10/07 02:23:21;;;;;;;0.10;0.10;;;;;;;;;;5133007;28;20112;-51
2023/10/07 02:25:49;;;;;;;0.13;0.13;;;;;;;;;;5132946;28;20055;-49
2023/10/07 02:28:15;;;;;;;0.10;0.10;;;;;;;;;;5132699;28;20053;-51
2023/10/07 02:30:51;;;;;;;0.20;0.20;;;;;;;;;;5132966;28;20074;-51
2023/10/07 02:33:21;;;;;;;0.20;0.20;;;;;;;;;;5132546;28;20051;-52
2023/10/07 02:35:51;;;;;;;0.20;0.20;;;;;;;;;;5131714;28;20074;-51
2023/10/07 02:38:24;;;;;;;0.10;0.10;;;;;;;;;;5131405;28;20054;-51
2023/10/07 02:40:50;;;;;;;0.20;0.20;;;;;;;;;;5133042;28;20400;-50
2023/10/07 02:43:16;;;;;;;0.17;0.17;;;;;;;;;;5125053;27;20047;-52
2023/10/07 02:45:42;;;;;;;0.20;0.20;;;;;;;;;;5130337;27;20051;-51
2023/10/07 02:48:11;;;;;;;0.20;0.20;;;;;;;;;;5131232;28;20043;-50
2023/10/07 02:50:42;;;;;;;0.17;0.17;;;;;;;;;;5132832;28;20468;-51
2023/10/07 02:53:16;;;;;;;0.20;0.20;;;;;;;;;;5132543;28;20467;-50
2023/10/07 02:55:47;;;;;;;0.20;0.20;;;;;;;;;;5132174;28;20388;-50
2023/10/07 02:58:24;;;;;;;0.10;0.10;;;;;;;;;;5132098;28;20502;-51
2023/10/07 03:00:50;;;;;;;0.13;0.13;;;;;;;;;;5132798;28;20538;-51
2023/10/07 03:03:20;;;;;;;0.10;0.10;;;;;;;;;;5132648;28;20138;-50
2023/10/07 03:05:57;;;;;;;0.10;0.10;;;;;;;;;;5132554;28;20107;-51
2023/10/07 03:08:31;;;;;;;0.10;0.10;;;;;;;;;;5132402;28;20039;-51
2023/10/07 03:11:09;;;;;;;0.10;0.10;;;;;;;;;;5132646;28;20100;-51
2023/10/07 03:13:37;;;;;;;;;;;;;;;;;;5132382;28;20062;-51
2023/10/07 03:18:56;;;;;;;0.10;0.10;;;;;;;;;;5189012;27;20197;-51
2023/10/07 03:21:35;;;;;;;0.20;0.20;;;;;;;;;;5169298;27;20055;-50
2023/10/07 03:24:00;;;;;;;0.10;0.10;;;;;;;;;;5168846;27;20055;-51
2023/10/07 03:26:32;;;;;;;0.10;0.10;;;;;;;;;;5169155;27;20053;-51
2023/10/07 03:28:58;;;;;;;0.20;0.20;;;;;;;;;;5169165;27;20102;-51
2023/10/07 03:31:33;;;;;;;0.20;0.20;;;;;;;;;;5169710;27;20053;-50
2023/10/07 03:33:59;;;;;;;0.10;0.10;;;;;;;;;;5169345;27;20551;-50
2023/10/07 03:41:52;;;;;;;0.20;0.20;;;;;;;;;;5185267;27;20589;-51
2023/10/07 03:44:19;;;;;;;0.10;0.10;;;;;;;;;;5167862;27;20091;-51
2023/10/07 03:46:47;;;;;;;0.20;0.20;;;;;;;;;;5187686;27;20049;-52
2023/10/07 03:49:15;;;;;;;0.20;0.20;;;;;;;;;;5167296;27;20149;-51
2023/10/07 03:51:41;;;;;;;0.20;0.20;;;;;;;;;;5169354;27;20058;-51
2023/10/07 03:54:11;;;;;;;0.10;0.10;;;;;;;;;;5169275;27;20070;-51
2023/10/07 03:56:38;;;;;;;0.10;0.10;;;;;;;;;;5169038;27;20046;-51
2023/10/07 03:59:05;;;;;;;0.10;0.10;;;;;;;;;;5154821;27;20047;-50
2023/10/07 04:01:32;;;;;;;0.20;0.20;;;;;;;;;;5148034;27;20477;-51
2023/10/07 04:03:59;;;;;;;0.10;0.10;;;;;;;;;;5148457;27;20130;-52
2023/10/07 04:06:34;;;;;;;0.10;0.10;;;;;;;;;;5148891;27;20047;-51
2023/10/07 04:09:07;;;;;;;0.17;0.17;;;;;;;;;;5148170;27;20046;-50
2023/10/07 04:11:34;;;;;;;0.10;0.10;;;;;;;;;;5148529;27;20062;-51
2023/10/07 04:14:06;;;;;;;0.10;0.10;;;;;;;;;;5147715;27;20070;-50
2023/10/07 04:16:33;;;;;;;0.10;0.10;;;;;;;;;;5147733;27;20422;-51
2023/10/07 04:19:09;;;;;;;0.10;0.10;;;;;;;;;;5146967;27;20444;-50
2023/10/07 04:21:39;;;;;;;0.10;0.10;;;;;;;;;;5147890;27;20050;-51
2023/10/07 04:24:09;;;;;;;0.15;0.15;;;;;;;;;;5148179;27;20399;-51
2023/10/07 04:26:39;;;;;;;0.10;0.10;;;;;;;;;;5147827;27;20058;-51
2023/10/07 04:29:08;;;;;;;0.20;0.20;;;;;;;;;;5147967;27;20047;-52
2023/10/07 04:31:37;;;;;;;0.10;0.10;;;;;;;;;;5148315;27;20471;-50
2023/10/07 04:34:11;;;;;;;0.20;0.20;;;;;;;;;;5148077;27;20062;-50
2023/10/07 04:37:08;;;;;;;0.13;0.13;;;;;;;;;;5147780;27;20043;-50
2023/10/07 04:39:28;;;;;;;0.10;0.10;;;;;;;;;;5137137;27;20054;-49
2023/10/07 04:42:00;;;;;;;0.13;0.13;;;;;;;;;;5167939;27;20057;-51
2023/10/07 04:47:46;;;;;;;0.10;0.10;;;;;;;;;;5173396;27;20100;-50
2023/10/07 04:52:40;;;;;;;0.10;0.10;;;;;;;;;;5136213;27;20055;-50
2023/10/07 04:55:11;;;;;;;0.20;0.20;;;;;;;;;;5133627;28;20070;-49
2023/10/07 04:57:56;;;;;;;0.17;0.17;;;;;;;;;;5134124;27;20058;-51
2023/10/07 05:02:59;;;;;;;0.10;0.10;;;;;;;;;;5154417;27;20096;-50
2023/10/07 05:05:28;;;;;;;0.20;0.20;;;;;;;;;;5153966;27;20099;-52
2023/10/07 05:07:56;;;;;;;0.10;0.10;;;;;;;;;;5153635;27;20054;-49
2023/10/07 05:10:22;;;;;;;0.10;0.10;;;;;;;;;;5154183;27;20157;-51
2023/10/07 05:12:51;;;;;;;0.10;0.10;;;;;;;;;;5153255;27;20487;-50
2023/10/07 05:15:17;;;;;;;0.10;0.10;;;;;;;;;;5153787;27;20046;-50
2023/10/07 05:17:43;;;;;;;0.10;0.10;;;;;;;;;;5152695;27;20103;-51
2023/10/07 05:20:26;;;;;;;0.15;0.15;;;;;;;;;;5153587;27;20038;-50
2023/10/07 05:22:53;;;;;;;0.10;0.10;;;;;;;;;;5153777;27;20414;-51
2023/10/07 05:25:18;;;;;;;0.13;0.13;;;;;;;;;;5154187;27;20422;-50
2023/10/07 05:27:44;;;;;;;0.10;0.10;;;;;;;;;;5153942;27;20494;-51
2023/10/07 05:30:12;;;;;;;0.10;0.10;;;;;;;;;;5154519;27;20047;-51
2023/10/07 05:32:39;;;;;;;0.10;0.10;;;;;;;;;;5154105;27;20084;-52
2023/10/07 05:35:05;;;;;;;0.20;0.20;;;;;;;;;;5154021;27;20053;-49
2023/10/07 05:37:31;;;;;;;0.20;0.20;;;;;;;;;;5153225;27;20137;-51
2023/10/07 05:39:56;;;;;;;0.10;0.10;;;;;;;;;;5153586;27;20130;-51
2023/10/07 05:42:22;;;;;;;0.10;0.10;;;;;;;;;;5150715;27;20042;-51
2023/10/07 05:44:48;;;;;;;0.20;0.20;;;;;;;;;;5174264;27;20098;-51
2023/10/07 05:47:14;;;;;;;0.13;0.13;;;;;;;;;;5174743;27;20566;-51
2023/10/07 05:49:41;;;;;;;0.10;0.10;;;;;;;;;;5136571;27;20050;-51
2023/10/07 05:52:06;;;;;;;0.20;0.20;;;;;;;;;;5149382;27;20055;-50
2023/10/07 05:54:32;;;;;;;0.10;0.10;;;;;;;;;;5153901;27;20047;-51
2023/10/07 05:56:58;;;;;;;0.20;0.20;;;;;;;;;;5153359;27;20490;-51
2023/10/07 05:59:32;;;;;;;0.10;0.10;;;;;;;;;;5135951;27;20126;-51
2023/10/07 06:02:01;;;;;;;0.10;0.10;;;;;;;;;;5132485;28;20075;-52
2023/10/07 06:04:28;;;;;;;0.10;0.10;;;;;;;;;;5131094;27;20055;-51
2023/10/07 06:06:53;;;;;;;0.13;0.13;;;;;;;;;;5132040;28;20399;-52
2023/10/07 06:09:21;;;;;;;0.10;0.10;;;;;;;;;;5132208;27;20589;-49
2023/10/07 06:11:48;;;;;;;0.10;0.10;;;;;;;;;;5132024;28;20082;-51
2023/10/07 06:14:17;;;;;;;0.10;0.10;;;;;;;;;;5131908;28;20043;-50
2023/10/07 06:16:43;;;;;;;0.15;0.15;;;;;;;;;;5131562;28;20427;-50
2023/10/07 06:19:11;;;;;;;0.10;0.10;;;;;;;;;;5131406;27;20479;-52
2023/10/07 06:21:40;;;;;;;0.20;0.20;;;;;;;;;;5131875;28;20100;-52
2023/10/07 06:24:07;;;;;;;0.20;0.20;;;;;;;;;;5132292;28;20105;-51
2023/10/07 06:26:32;;;;;;;0.10;0.10;;;;;;;;;;5131965;28;20059;-50
2023/10/07 06:29:05;;;;;;;0.10;0.10;;;;;;;;;;5131665;27;20133;-51
2023/10/07 06:31:31;;;;;;;0.10;0.10;;;;;;;;;;5132240;28;20092;-51
2023/10/07 06:34:00;;;;;;;0.10;0.10;;;;;;;;;;5131468;28;20429;-49
2023/10/07 06:36:26;;;;;;;0.20;0.20;;;;;;;;;;5131510;28;20067;-51
2023/10/07 06:38:53;;;;;;;0.22;0.22;;;;;;;;;;5113051;28;20047;-51
2023/10/07 06:41:19;;;;;;;0.10;0.10;;;;;;;;;;5136394;27;20082;-51
2023/10/07 06:43:50;;;;;;;0.20;0.20;;;;;;;;;;5152137;27;20546;-51
2023/10/07 06:46:20;;;;;;;0.10;0.10;;;;;;;;;;5152884;27;20054;-51
2023/10/07 06:48:50;;;;;;;0.10;0.10;;;;;;;;;;5152011;27;20058;-50
2023/10/07 06:51:16;;;;;;;0.10;0.10;;;;;;;;;;5152890;27;20059;-52
2023/10/07 06:53:43;;;;;;;0.17;0.17;;;;;;;;;;5140184;27;20054;-51
2023/10/07 06:56:20;;;;;;;0.15;0.15;;;;;;;;;;5152358;27;20043;-51
2023/10/07 06:58:53;;;;;;;0.20;0.20;;;;;;;;;;5152190;27;20086;-51
2023/10/07 07:01:32;;;;;;;0.10;0.10;;;;;;;;;;5152259;27;20470;-51
2023/10/07 07:04:09;;;;;;;0.10;0.10;;;;;;;;;;5152830;27;20065;-51
2023/10/07 07:06:42;;;;;;;0.20;0.20;;;;;;;;;;5152275;27;20096;-51
2023/10/07 07:11:58;;;;;;;0.10;0.10;;;;;;;;;;5136608;27;20516;-52
2023/10/07 07:14:28;;;;;;;0.20;0.20;;;;;;;;;;5152111;27;20042;-51
2023/10/07 07:16:56;;;;;;;0.10;0.10;;;;;;;;;;5152043;27;20398;-52
2023/10/07 07:19:23;;;;;;;0.10;0.10;;;;;;;;;;5151661;27;20069;-51
2023/10/07 07:21:49;;;;;;;0.13;0.13;;;;;;;;;;5151939;27;20119;-50
2023/10/07 07:24:15;;;;;;;0.10;0.10;;;;;;;;;;5152495;27;20047;-51
2023/10/07 07:26:50;;;;;;;0.10;0.10;;;;;;;;;;5152520;27;20087;-50
2023/10/07 07:29:17;;;;;;;0.20;0.20;;;;;;;;;;5145876;27;20054;-51
2023/10/07 07:31:46;;;;;;;0.10;0.10;;;;;;;;;;5131802;27;20044;-50
2023/10/07 07:34:23;;;;;;;;;;;;;;;;;;5140981;27;20053;-51
2023/10/07 07:36:56;;;;;;;0.10;0.10;;;;;;;;;;5136824;27;20000;-51
2023/10/07 07:39:22;;;;;;;0.10;0.10;;;;;;;;;;5148267;27;20068;-51
2023/10/07 07:41:55;;;;;;;0.20;0.20;;;;;;;;;;5145667;27;20529;-51
2023/10/07 07:44:32;;;;;;;0.10;0.10;;;;;;;;;;5150734;27;20047;-51
2023/10/07 07:46:59;;;;;;;0.20;0.20;;;;;;;;;;5151218;27;20064;-51
2023/10/07 07:49:27;;;;;;;0.10;0.10;;;;;;;;;;5150916;27;20126;-51
2023/10/07 07:51:53;;;;;;;0.10;0.10;;;;;;;;;;5151308;27;20408;-52
2023/10/07 07:54:19;;;;;;;0.10;0.10;;;;;;;;;;5150286;27;20534;-52
2023/10/07 07:56:45;;;;;;;1.08;0.20;;;;;;;;;;5150335;27;20038;-51
2023/10/07 07:59:14;;;;;;;0.17;0.17;;;;;;;;;;5135985;27;20069;-51
2023/10/07 08:01:44;;;;;;;0.10;0.10;;;;;;;;;;5129724;28;20051;-50
2023/10/07 08:04:17;;;;;;;0.15;0.15;;;;;;;;;;5130232;28;20047;-51
2023/10/07 08:06:46;;;;;;;0.10;0.10;;;;;;;;;;5130558;28;20069;-51
2023/10/07 08:09:12;;;;;;;0.20;0.20;;;;;;;;;;5130063;27;20429;-51
2023/10/07 08:11:38;;;;;;;0.20;0.20;;;;;;;;;;5130112;28;20537;-49
2023/10/07 08:14:09;;;;;;;0.13;0.13;;;;;;;;;;5129984;28;20412;-51
2023/10/07 08:16:46;;;;;;;0.20;0.20;;;;;;;;;;5129638;28;20488;-50
2023/10/07 08:19:13;;;;;;;0.10;0.10;;;;;;;;;;5143659;27;20071;-51
2023/10/07 08:21:39;;;;;;;0.20;0.20;;;;;;;;;;5150091;27;20483;-51
2023/10/07 08:24:06;;;;;;;0.10;0.10;;;;;;;;;;5150434;27;20380;-50
2023/10/07 08:26:34;;;;;;;0.10;0.10;;;;;;;;;;5151126;27;20060;-50
2023/10/07 08:29:00;;;;;;;0.10;0.10;;;;;;;;;;5154274;27;20445;-51
2023/10/07 08:31:43;;;;;;;0.22;0.22;;;;;;;;;;5124175;27;20102;-48
2023/10/07 08:36:43;;;;;;;0.20;0.20;;;;;;;;;;5190492;27;20149;-51
2023/10/07 08:39:09;;;;;;;0.10;0.10;;;;;;;;;;5169394;27;20046;-51
2023/10/07 08:41:37;;;;;;;0.10;0.10;;;;;;;;;;5161410;27;20051;-50
2023/10/07 08:44:21;;;;;;;0.20;0.20;;;;;;;;;;5148099;27;20471;-51
2023/10/07 08:46:49;;;;;;;0.10;0.10;;;;;;;;;;5147871;27;20089;-51
2023/10/07 08:49:24;;;;;;;0.10;0.10;;;;;;;;;;5147941;27;20078;-51
2023/10/07 08:51:52;;;;;;;0.20;0.20;;;;;;;;;;5148506;27;20099;-51
2023/10/07 08:54:17;;;;;;;0.20;0.20;;;;;;;;;;5147770;27;20054;-51
2023/10/07 08:56:54;;;;;;;0.20;0.20;;;;;;;;;;5147007;27;20051;-50
2023/10/07 08:59:22;;;;;;;0.10;0.10;;;;;;;;;;5147305;27;20046;-51
2023/10/07 09:01:48;;;;;;;0.13;0.13;;;;;;;;;;5146985;27;20047;-50
2023/10/07 09:04:18;;;;;;;0.10;0.10;;;;;;;;;;5147567;27;20047;-50
2023/10/07 09:06:50;;;;;;;0.13;0.13;;;;;;;;;;5148182;27;20391;-51
2023/10/07 09:09:35;;;;;;;0.10;0.10;;;;;;;;;;5147193;27;20047;-51
2023/10/07 09:12:08;;;;;;;0.10;0.10;;;;;;;;;;5147692;27;20066;-50
2023/10/07 09:14:34;;;;;;;0.10;0.10;;;;;;;;;;5147778;27;20061;-51
2023/10/07 09:17:04;;;;;;;0.17;0.17;;;;;;;;;;5147719;27;20051;-51
2023/10/07 09:19:30;;;;;;;0.10;0.10;;;;;;;;;;5147665;27;20080;-50
2023/10/07 09:21:57;;;;;;;0.20;0.20;;;;;;;;;;5147978;27;20055;-51
2023/10/07 09:24:24;;;;;;;0.10;0.10;;;;;;;;;;5148062;27;20047;-50
2023/10/07 09:26:56;;;;;;;0.20;0.20;;;;;;;;;;5148230;27;20070;-51
2023/10/07 09:29:24;;;;;;;0.20;0.20;;;;;;;;;;5147584;27;20162;-51
2023/10/07 09:31:58;;;;;;;0.10;0.10;;;;;;;;;;5129211;27;20054;-51
2023/10/07 09:34:41;;;;;;;0.10;0.10;;;;;;;;;;5127482;28;20138;-51
2023/10/07 09:37:12;;;;;;;0.10;0.10;;;;;;;;;;5127238;28;20143;-51
2023/10/07 09:39:45;;;;;;;0.13;0.13;;;;;;;;;;5126808;27;20051;-50
2023/10/07 09:42:36;;;;;;;0.10;0.10;;;;;;;;;;5156681;27;20057;-49
2023/10/07 09:45:16;;;;;;;0.10;0.10;;;;;;;;;;5153172;27;20060;-50
2023/10/07 09:47:44;;;;;;;0.20;0.20;;;;;;;;;;5149167;27;20051;-50
2023/10/07 09:50:19;;;;;;;0.10;0.10;;;;;;;;;;5132436;28;20047;-53
2023/10/07 09:52:51;;;;;;;0.10;0.10;;;;;;;;;;5134127;28;20043;-51
2023/10/07 09:55:38;;;;;;;0.20;0.20;;;;;;;;;;5133620;28;20097;-51
2023/10/07 09:58:11;;;;;;;0.20;0.20;;;;;;;;;;5117021;28;20453;-51
2023/10/07 10:00:45;;;;;;;0.15;0.15;;;;;;;;;;5132532;28;20418;-50
2023/10/07 10:03:30;;;;;;;0.20;0.20;;;;;;;;;;5132668;28;20058;-50
2023/10/07 10:06:04;;;;;;;0.20;0.20;;;;;;;;;;5117947;28;20100;-51
2023/10/07 10:08:43;;;;;;;0.20;0.20;;;;;;;;;;5132896;28;20085;-51
2023/10/07 10:11:23;;;;;;;0.20;0.20;;;;;;;;;;5133495;28;20455;-51
2023/10/07 10:14:09;;;;;;;0.10;0.10;;;;;;;;;;5132578;28;20483;-49
2023/10/07 10:16:44;;;;;;;0.10;0.10;;;;;;;;;;5133023;28;20047;-50
2023/10/07 10:19:17;;;;;;;0.10;0.10;;;;;;;;;;5132239;28;20043;-50
2023/10/07 10:21:44;;;;;;;0.10;0.10;;;;;;;;;;5132576;28;20051;-51
2023/10/07 10:24:17;;;;;;;0.20;0.20;;;;;;;;;;5132901;28;20047;-51
2023/10/07 10:26:44;;;;;;;0.10;0.10;;;;;;;;;;5133129;28;20602;-51
2023/10/07 10:29:17;;;;;;;0.10;0.10;;;;;;;;;;5132774;28;20051;-51
2023/10/07 10:31:50;;;;;;;0.10;0.10;;;;;;;;;;5115447;28;20441;-51
2023/10/07 10:34:16;;;;;;;0.20;0.20;;;;;;;;;;5112349;28;20052;-51
2023/10/07 10:36:43;;;;;;;0.10;0.10;;;;;;;;;;5111869;28;20054;-50
2023/10/07 10:39:13;;;;;;;0.10;0.10;;;;;;;;;;5111628;28;20386;-50
2023/10/07 10:41:54;;;;;;;0.20;0.20;;;;;;;;;;5136869;27;20046;-51
2023/10/07 10:44:20;;;;;;;0.10;0.10;;;;;;;;;;5153131;27;20149;-51
2023/10/07 10:46:47;;;;;;;0.20;0.20;;;;;;;;;;5153603;27;20038;-51
2023/10/07 10:49:15;;;;;;;0.20;0.20;;;;;;;;;;5127049;27;20058;-51
2023/10/07 10:51:45;;;;;;;;;;;;;;;;;;5132306;28;20100;-49
2023/10/07 10:54:12;;;;;;;0.15;0.15;;;;;;;;;;5132616;28;19923;-51
2023/10/07 10:56:47;;;;;;;0.20;0.20;;;;;;;;;;5132127;28;20047;-51
2023/10/07 10:59:14;;;;;;;0.10;0.10;;;;;;;;;;5130086;27;20051;-49
2023/10/07 11:01:43;;;;;;;0.10;0.10;;;;;;;;;;5131721;27;20471;-50
2023/10/07 11:04:12;;;;;;;0.10;0.10;;;;;;;;;;5131547;28;20051;-51
2023/10/07 11:06:39;;;;;;;0.20;0.20;;;;;;;;;;5132335;27;20108;-51
2023/10/07 11:09:05;;;;;;;0.10;0.10;;;;;;;;;;5118236;27;20492;-51
2023/10/07 11:11:35;;;;;;;0.20;0.20;;;;;;;;;;5128412;28;20053;-51
2023/10/07 11:14:09;;;;;;;0.20;0.20;;;;;;;;;;5131700;28;20047;-50
2023/10/07 11:16:43;;;;;;;0.20;0.20;;;;;;;;;;5132030;28;20059;-51
2023/10/07 11:19:12;;;;;;;0.20;0.20;;;;;;;;;;5130801;28;20050;-50
2023/10/07 11:21:41;;;;;;;0.20;0.20;;;;;;;;;;5131380;28;20130;-50
2023/10/07 11:24:07;;;;;;;0.20;0.20;;;;;;;;;;5131087;27;20084;-49
2023/10/07 11:26:33;;;;;;;0.10;0.10;;;;;;;;;;5131958;27;20130;-50
2023/10/07 11:29:11;;;;;;;0.10;0.10;;;;;;;;;;5118612;27;20043;-51
2023/10/07 11:31:37;;;;;;;0.10;0.10;;;;;;;;;;5128056;27;20146;-51
2023/10/07 11:34:05;;;;;;;0.20;0.20;;;;;;;;;;5131619;28;20085;-50
2023/10/07 11:36:46;;;;;;;0.13;0.13;;;;;;;;;;5131384;28;20051;-50
2023/10/07 11:39:15;;;;;;;0.20;0.20;;;;;;;;;;5130888;28;20385;-51
2023/10/07 11:41:41;;;;;;;0.20;0.20;;;;;;;;;;5141776;27;20066;-50
2023/10/07 11:44:09;;;;;;;0.20;0.20;;;;;;;;;;5151726;27;20054;-50
2023/10/07 11:46:36;;;;;;;0.10;0.10;;;;;;;;;;5152003;27;20059;-50
2023/10/07 11:49:01;;;;;;;0.10;0.10;;;;;;;;;;5124247;27;20105;-51
2023/10/07 11:51:27;;;;;;;0.10;0.10;;;;;;;;;;5110752;28;20097;-51
2023/10/07 11:53:55;;;;;;;0.20;0.20;;;;;;;;;;5110634;28;20050;-50
2023/10/07 11:56:21;;;;;;;0.10;0.10;;;;;;;;;;5110623;28;20509;-50
2023/10/07 11:58:49;;;;;;;0.20;0.20;;;;;;;;;;5121165;28;20045;-51
2023/10/07 12:01:20;;;;;;;0.10;0.10;;;;;;;;;;5131414;28;20050;-50
2023/10/07 12:03:46;;;;;;;0.20;0.20;;;;;;;;;;5130698;28;20483;-50
2023/10/07 12:06:11;;;;;;;0.20;0.20;;;;;;;;;;5130865;28;20434;-50
2023/10/07 12:08:38;;;;;;;0.10;0.10;;;;;;;;;;5130360;28;20479;-52
2023/10/07 12:11:05;;;;;;;0.20;0.20;;;;;;;;;;5130636;27;20411;-50
2023/10/07 12:13:31;;;;;;;0.10;0.10;;;;;;;;;;5130416;28;20528;-51
2023/10/07 12:15:57;;;;;;;0.20;0.20;;;;;;;;;;5130984;27;20075;-51
2023/10/07 12:18:31;;;;;;;0.10;0.10;;;;;;;;;;5121036;27;20081;-50
2023/10/07 12:21:00;;;;;;;0.13;0.13;;;;;;;;;;5111009;28;20047;-51
2023/10/07 12:23:27;;;;;;;0.13;0.13;;;;;;;;;;5115331;28;20058;-50
2023/10/07 12:25:52;;;;;;;0.20;0.20;;;;;;;;;;5130568;28;20366;-51
2023/10/07 12:28:18;;;;;;;0.15;0.15;;;;;;;;;;5130996;28;20047;-51
2023/10/07 12:30:44;;;;;;;0.20;0.20;;;;;;;;;;5140359;27;20039;-51
2023/10/07 12:33:10;;;;;;;0.20;0.20;;;;;;;;;;5151497;27;20074;-51
2023/10/07 12:35:46;;;;;;;0.10;0.10;;;;;;;;;;5151285;27;20580;-50
2023/10/07 12:38:12;;;;;;;0.10;0.10;;;;;;;;;;5138403;27;20056;-51
2023/10/07 12:40:39;;;;;;;0.22;0.22;;;;;;;;;;5113372;27;20047;-51
2023/10/07 12:43:06;;;;;;;0.10;0.10;;;;;;;;;;5132739;27;20104;-51
2023/10/07 12:45:31;;;;;;;0.10;0.10;;;;;;;;;;5130769;28;20130;-51
2023/10/07 12:47:57;;;;;;;0.10;0.10;;;;;;;;;;5130141;28;20494;-51
2023/10/07 12:50:26;;;;;;;0.20;0.20;;;;;;;;;;5130911;28;20177;-51
2023/10/07 12:52:54;;;;;;;0.10;0.10;;;;;;;;;;5130783;28;20051;-51
2023/10/07 12:55:20;;;;;;;0.10;0.10;;;;;;;;;;5131328;28;20055;-50
2023/10/07 12:57:49;;;;;;;0.20;0.20;;;;;;;;;;5130676;28;20154;-51
2023/10/07 13:00:22;;;;;;;0.10;0.10;;;;;;;;;;5130947;28;20047;-51
2023/10/07 13:02:49;;;;;;;0.20;0.20;;;;;;;;;;5130762;28;20054;-51
2023/10/07 13:05:19;;;;;;;0.10;0.10;;;;;;;;;;5131027;28;20080;-51
2023/10/07 13:07:45;;;;;;;0.20;0.20;;;;;;;;;;5130697;28;20043;-51
2023/10/07 13:10:11;;;;;;;0.20;0.20;;;;;;;;;;5130589;28;20419;-50
2023/10/07 13:12:37;;;;;;;0.55;0.20;;;;;;;;;;5130397;28;20292;-50
2023/10/07 13:15:14;;;;;;;0.20;0.20;;;;;;;;;;5130041;28;20051;-51
2023/10/07 13:17:45;;;;;;;0.20;0.20;;;;;;;;;;5129585;28;20054;-51
2023/10/07 13:20:12;;;;;;;0.20;0.20;;;;;;;;;;5130406;28;20464;-50
2023/10/07 13:22:38;;;;;;;0.10;0.10;;;;;;;;;;5132749;27;20536;-49
2023/10/07 13:25:04;;;;;;;0.10;0.10;;;;;;;;;;5133593;28;20051;-51
2023/10/07 13:27:29;;;;;;;0.20;0.20;;;;;;;;;;5132319;27;20039;-51
2023/10/07 13:29:55;;;;;;;0.20;0.20;;;;;;;;;;5144546;27;20099;-51
2023/10/07 13:32:20;;;;;;;0.20;0.20;;;;;;;;;;5133891;28;20455;-50
2023/10/07 13:34:46;;;;;;;0.30;0.30;;;;;;;;;;5133583;28;20043;-51
2023/10/07 13:37:12;;;;;;;0.10;0.10;;;;;;;;;;5133292;28;20062;-49
2023/10/07 13:39:38;;;;;;;0.10;0.10;;;;;;;;;;5133004;28;20055;-51
2023/10/07 13:42:09;;;;;;;0.20;0.20;;;;;;;;;;5147061;27;20560;-51
2023/10/07 13:44:35;;;;;;;0.20;0.20;;;;;;;;;;5153482;27;20058;-51
2023/10/07 13:47:01;;;;;;;0.10;0.10;;;;;;;;;;5154126;27;20134;-50
2023/10/07 13:49:27;;;;;;;0.20;0.20;;;;;;;;;;5119921;27;20046;-50
2023/10/07 13:51:56;;;;;;;0.10;0.10;;;;;;;;;;5113149;28;20075;-50
2023/10/07 13:54:22;;;;;;;0.20;0.20;;;;;;;;;;5112805;28;20070;-51
2023/10/07 13:56:55;;;;;;;0.10;0.10;;;;;;;;;;5112696;28;20048;-51
2023/10/07 13:59:24;;;;;;;0.20;0.20;;;;;;;;;;5112486;28;20472;-50
2023/10/07 14:01:52;;;;;;;0.20;0.20;;;;;;;;;;5112744;28;20143;-51
2023/10/07 14:04:19;;;;;;;0.20;0.20;;;;;;;;;;5112607;28;20133;-51
2023/10/07 14:06:45;;;;;;;0.10;0.10;;;;;;;;;;5112650;28;20475;-51
2023/10/07 14:09:24;;;;;;;0.20;0.20;;;;;;;;;;5112262;28;20047;-50
2023/10/07 14:11:51;;;;;;;0.20;0.20;;;;;;;;;;5112657;28;20121;-50
2023/10/07 14:14:16;;;;;;;0.20;0.20;;;;;;;;;;5112440;28;20498;-51
2023/10/07 14:16:42;;;;;;;0.20;0.20;;;;;;;;;;5127815;28;20497;-51
2023/10/07 14:19:08;;;;;;;0.20;0.20;;;;;;;;;;5132167;28;20047;-50
2023/10/07 14:21:34;;;;;;;0.15;0.15;;;;;;;;;;5132783;28;20735;-51
2023/10/07 14:24:03;;;;;;;0.20;0.20;;;;;;;;;;5132792;28;20467;-51
2023/10/07 14:26:32;;;;;;;0.10;0.10;;;;;;;;;;5132744;28;20131;-50
2023/10/07 14:29:02;;;;;;;0.20;0.20;;;;;;;;;;5134552;27;20100;-50
2023/10/07 14:31:28;;;;;;;0.20;0.20;;;;;;;;;;5154080;27;20137;-51
2023/10/07 14:33:54;;;;;;;0.20;0.20;;;;;;;;;;5153620;27;20495;-51
2023/10/07 14:36:21;;;;;;;0.15;0.15;;;;;;;;;;5153929;27;20513;-51
2023/10/07 14:38:48;;;;;;;0.20;0.20;;;;;;;;;;5130922;27;20039;-51
2023/10/07 14:41:14;;;;;;;0.10;0.10;;;;;;;;;;5112815;28;20082;-51
2023/10/07 14:43:40;;;;;;;0.10;0.10;;;;;;;;;;5112355;28;20108;-51
2023/10/07 14:46:10;;;;;;;0.10;0.10;;;;;;;;;;5112258;28;20442;-50
2023/10/07 14:48:37;;;;;;;0.17;0.17;;;;;;;;;;5111771;28;20050;-50
2023/10/07 14:51:05;;;;;;;0.17;0.17;;;;;;;;;;5111709;28;20079;-50
2023/10/07 14:53:33;;;;;;;0.10;0.10;;;;;;;;;;5111869;28;20043;-50
2023/10/07 14:56:07;;;;;;;0.10;0.10;;;;;;;;;;5111833;28;20381;-49
2023/10/07 14:58:36;;;;;;;0.17;0.17;;;;;;;;;;5111379;28;20109;-49
2023/10/07 15:01:01;;;;;;;;;;;;;;;;;;5111977;28;20047;-51
2023/10/07 15:03:27;;;;;;;0.20;0.20;;;;;;;;;;5111813;28;19996;-51
2023/10/07 15:05:55;;;;;;;0.20;0.20;;;;;;;;;;5111822;28;20059;-51
2023/10/07 15:08:21;;;;;;;0.10;0.10;;;;;;;;;;5111497;28;20055;-51
2023/10/07 15:10:48;;;;;;;0.20;0.20;;;;;;;;;;5111732;28;20043;-50
2023/10/07 15:13:14;;;;;;;0.20;0.20;;;;;;;;;;5111361;28;20051;-51
2023/10/07 15:15:41;;;;;;;0.17;0.17;;;;;;;;;;5111544;28;20078;-50
2023/10/07 15:18:07;;;;;;;0.30;0.30;;;;;;;;;;5122541;28;20051;-51
2023/10/07 15:20:33;;;;;;;0.13;0.13;;;;;;;;;;5132083;28;20092;-50
2023/10/07 15:23:01;;;;;;;0.10;0.10;;;;;;;;;;5131826;28;20099;-50
2023/10/07 15:25:27;;;;;;;0.10;0.10;;;;;;;;;;5131317;28;20047;-50
2023/10/07 15:27:53;;;;;;;0.20;0.20;;;;;;;;;;5134033;27;20410;-51